Time;durP1;ratioP1;P1;durP2;ratioP2;P2;SDS_P1;SDS_P2;PMS_P1;PMS_P2;Temp;Humidity;BMP_temperature;BMP_pressure;BME280_temperature;BME280_humidity;BME280_pressure;Samples;Min_cycle;Max_cycle;Signal;HPM_P1;HPM_P2
2021/03/29 00:00:05;;;;;;;7.20;1.90;;;10.70;99.90;;;;;;4999713;28;20046;-66
2021/03/29 00:02:30;;;;;;;3.05;1.52;;;10.70;99.90;;;;;;5003566;28;20172;-66
2021/03/29 00:04:56;;;;;;;9.90;2.10;;;10.70;99.90;;;;;;5022084;28;20041;-66
2021/03/29 00:07:23;;;;;;;6.13;1.85;;;10.70;99.90;;;;;;5011269;28;20129;-66
2021/03/29 00:09:50;;;;;;;7.97;2.22;;;10.70;99.90;;;;;;5013815;28;20049;-66
2021/03/29 00:12:17;;;;;;;6.68;2.10;;;10.70;99.90;;;;;;5015429;28;20034;-66
2021/03/29 00:14:44;;;;;;;9.63;1.77;;;10.70;99.90;;;;;;5012569;28;20145;-66
2021/03/29 00:17:13;;;;;;;7.68;1.77;;;10.70;99.90;;;;;;5011529;28;20541;-66
2021/03/29 00:19:39;;;;;;;13.43;2.38;;;10.70;99.90;;;;;;5009433;28;20061;-66
2021/03/29 00:22:05;;;;;;;8.30;2.05;;;10.60;99.90;;;;;;5005725;28;20068;-66
2021/03/29 00:24:33;;;;;;;8.25;2.13;;;10.60;99.90;;;;;;5003892;28;20894;-67
2021/03/29 00:26:59;;;;;;;10.27;2.00;;;10.70;99.90;;;;;;4999930;28;20136;-66
2021/03/29 00:29:25;;;;;;;9.65;2.05;;;10.70;99.90;;;;;;5000756;28;20044;-66
2021/03/29 00:31:52;;;;;;;10.45;2.42;;;10.80;99.90;;;;;;5005131;28;20116;-66
2021/03/29 00:34:18;;;;;;;5.60;1.77;;;10.80;99.90;;;;;;5008293;28;20034;-66
2021/03/29 00:36:46;;;;;;;11.93;2.28;;;10.70;99.90;;;;;;5011128;28;20037;-66
2021/03/29 00:39:13;;;;;;;7.82;1.92;;;10.70;99.90;;;;;;5014696;28;20036;-66
2021/03/29 00:41:39;;;;;;;11.73;2.00;;;10.70;99.90;;;;;;5017870;28;20029;-66
2021/03/29 00:44:06;;;;;;;11.80;2.63;;;10.70;99.90;;;;;;5017157;28;20132;-66
2021/03/29 00:46:33;;;;;;;12.27;2.50;;;10.60;99.90;;;;;;5013490;28;20095;-66
2021/03/29 00:48:59;;;;;;;10.88;2.53;;;10.70;99.90;;;;;;5010706;28;20033;-66
2021/03/29 00:51:28;;;;;;;12.65;2.13;;;10.70;99.90;;;;;;5023113;28;20041;-66
2021/03/29 00:54:00;;;;;;;9.88;2.00;;;10.70;99.90;;;;;;5029060;28;20051;-66
2021/03/29 00:56:28;;;;;;;11.50;1.98;;;10.70;99.90;;;;;;5017418;28;20034;-66
2021/03/29 00:58:55;;;;;;;9.27;2.30;;;10.80;99.90;;;;;;5017543;28;20092;-66
2021/03/29 01:01:29;;;;;;;9.40;2.30;;;10.80;99.90;;;;;;5013411;28;20044;-66
2021/03/29 01:03:58;;;;;;;6.35;1.73;;;10.70;99.90;;;;;;5011227;28;20435;-66
2021/03/29 01:06:27;;;;;;;8.18;2.45;;;10.70;99.90;;;;;;5019748;28;20040;-66
2021/03/29 01:08:57;;;;;;;11.40;2.20;;;10.70;99.90;;;;;;5003862;28;20069;-66
2021/03/29 01:11:26;;;;;;;6.13;1.83;;;10.70;99.90;;;;;;5000689;28;20044;-66
2021/03/29 01:13:59;;;;;;;11.65;2.17;;;10.70;99.90;;;;;;4999311;28;20092;-66
2021/03/29 01:16:30;;;;;;;9.32;3.25;;;10.70;99.90;;;;;;5012484;28;20034;-66
2021/03/29 01:18:58;;;;;;;7.80;1.80;;;10.80;99.90;;;;;;5021407;28;20055;-66
2021/03/29 01:21:51;;;;;;;7.05;1.92;;;10.80;99.90;;;;;;5009903;28;20029;-66
2021/03/29 01:24:23;;;;;;;8.48;2.13;;;10.80;99.90;;;;;;5029198;28;20040;-66
2021/03/29 01:26:50;;;;;;;6.15;1.95;;;10.80;99.90;;;;;;5031607;28;20033;-66
2021/03/29 01:29:17;;;;;;;10.32;2.38;;;10.80;99.90;;;;;;5031426;28;20042;-66
2021/03/29 01:31:44;;;;;;;9.65;2.17;;;10.80;99.90;;;;;;5013870;28;20052;-66
2021/03/29 01:34:13;;;;;;;9.35;1.98;;;10.80;99.90;;;;;;5009490;28;20037;-66
2021/03/29 01:36:41;;;;;;;6.38;1.95;;;10.80;99.90;;;;;;5005522;28;20029;-66
2021/03/29 01:39:08;;;;;;;6.18;1.92;;;10.80;99.90;;;;;;5003905;28;20034;-66
2021/03/29 01:41:34;;;;;;;8.15;2.10;;;10.80;99.90;;;;;;4999749;28;20125;-66
2021/03/29 01:44:01;;;;;;;10.10;2.60;;;10.80;99.90;;;;;;5012553;28;20757;-66
2021/03/29 01:46:28;;;;;;;8.43;2.17;;;10.80;99.90;;;;;;5012714;28;20037;-66
2021/03/29 01:48:55;;;;;;;6.38;2.15;;;10.80;99.90;;;;;;5010257;28;20753;-66
2021/03/29 01:51:21;;;;;;;7.63;2.15;;;10.80;99.90;;;;;;5007116;28;20576;-66
2021/03/29 01:53:48;;;;;;;12.13;2.05;;;10.80;99.90;;;;;;5004001;28;20514;-66
2021/03/29 01:56:14;;;;;;;6.22;2.10;;;10.80;99.90;;;;;;5000511;28;20132;-66
2021/03/29 01:58:40;;;;;;;7.38;1.88;;;10.80;99.90;;;;;;4999094;28;20040;-66
2021/03/29 02:01:08;;;;;;;11.52;2.42;;;10.80;99.90;;;;;;5002593;28;20030;-66
2021/03/29 02:03:35;;;;;;;14.50;2.22;;;10.70;99.90;;;;;;5005114;28;20572;-66
2021/03/29 02:06:02;;;;;;;7.75;2.22;;;10.70;99.90;;;;;;5008673;28;20076;-66
2021/03/29 02:08:29;;;;;;;8.93;2.42;;;10.70;99.90;;;;;;5024783;28;20037;-66
2021/03/29 02:10:56;;;;;;;14.25;2.20;;;10.60;99.90;;;;;;4996839;28;20056;-66
2021/03/29 02:13:28;;;;;;;9.93;2.53;;;10.60;99.90;;;;;;4999454;28;20493;-66
2021/03/29 02:16:01;;;;;;;11.52;2.25;;;10.60;99.90;;;;;;5002214;28;20030;-66
2021/03/29 02:18:31;;;;;;;9.32;2.50;;;10.50;99.90;;;;;;5021107;28;20958;-66
2021/03/29 02:21:04;;;;;;;10.43;1.90;;;10.40;99.90;;;;;;5007943;28;20109;-66
2021/03/29 02:23:30;;;;;;;11.32;2.30;;;10.50;99.90;;;;;;5006632;28;20764;-66
2021/03/29 02:25:59;;;;;;;9.23;2.13;;;10.40;99.90;;;;;;5000947;28;20616;-66
2021/03/29 02:28:25;;;;;;;5.68;2.22;;;10.40;99.90;;;;;;4996715;28;20037;-66
2021/03/29 02:30:51;;;;;;;8.05;1.75;;;10.40;99.90;;;;;;4999793;28;20117;-66
2021/03/29 02:33:18;;;;;;;7.32;2.00;;;10.40;99.90;;;;;;5002532;28;20107;-66
2021/03/29 02:35:45;;;;;;;9.00;2.08;;;10.40;99.90;;;;;;5005490;28;20060;-66
2021/03/29 02:38:13;;;;;;;11.73;2.38;;;10.40;99.90;;;;;;5008047;28;20038;-66
2021/03/29 02:40:39;;;;;;;6.40;1.80;;;10.30;99.90;;;;;;5011027;28;20037;-66
2021/03/29 02:43:07;;;;;;;11.05;2.55;;;10.30;99.90;;;;;;5014458;28;20033;-66
2021/03/29 02:45:40;;;;;;;9.55;1.90;;;10.20;99.90;;;;;;5008256;28;20034;-66
2021/03/29 02:48:08;;;;;;;7.13;2.15;;;10.20;99.90;;;;;;5017097;28;20068;-66
2021/03/29 02:50:37;;;;;;;22.23;2.25;;;10.10;99.90;;;;;;5006556;28;20820;-66
2021/03/29 02:53:16;;;;;;;9.70;2.30;;;10.20;99.90;;;;;;5002285;28;20069;-66
2021/03/29 02:55:44;;;;;;;13.32;2.85;;;10.20;99.90;;;;;;5001636;28;20038;-66
2021/03/29 02:58:13;;;;;;;10.73;2.58;;;10.20;99.90;;;;;;4998638;28;20087;-66
2021/03/29 03:00:39;;;;;;;8.68;2.03;;;10.30;99.90;;;;;;5009282;28;20026;-66
2021/03/29 03:03:06;;;;;;;5.13;1.83;;;10.30;99.90;;;;;;5003287;28;20025;-66
2021/03/29 03:05:34;;;;;;;7.55;2.05;;;10.30;99.90;;;;;;5005855;28;20168;-66
2021/03/29 03:08:01;;;;;;;9.52;2.10;;;10.30;99.90;;;;;;5009343;28;20032;-66
2021/03/29 03:10:28;;;;;;;7.45;2.00;;;10.30;99.90;;;;;;5011884;28;20128;-66
2021/03/29 03:12:56;;;;;;;8.73;2.10;;;10.20;99.90;;;;;;4995607;28;20481;-66
2021/03/29 03:15:24;;;;;;;6.22;2.60;;;10.30;99.90;;;;;;4998294;28;20145;-66
2021/03/29 03:17:52;;;;;;;5.40;1.92;;;10.30;99.90;;;;;;5001825;28;20029;-67
2021/03/29 03:20:18;;;;;;;9.30;2.05;;;10.30;99.90;;;;;;5020319;28;20563;-67
2021/03/29 03:22:59;;;;;;;10.13;2.55;;;10.30;99.90;;;;;;5007460;28;20045;-67
2021/03/29 03:25:32;;;;;;;7.10;2.08;;;10.30;99.90;;;;;;5001392;28;20543;-67
2021/03/29 03:28:01;;;;;;;10.90;2.35;;;10.20;99.90;;;;;;5014032;28;20069;-67
2021/03/29 03:30:29;;;;;;;9.80;2.15;;;10.30;99.90;;;;;;5014710;28;20071;-67
2021/03/29 03:32:55;;;;;;;8.48;1.92;;;10.30;99.90;;;;;;5025866;28;20041;-67
2021/03/29 03:35:22;;;;;;;7.57;2.05;;;10.20;99.90;;;;;;5008090;28;20042;-67
2021/03/29 03:38:11;;;;;;;10.68;2.28;;;10.20;99.90;;;;;;5005062;28;20053;-67
2021/03/29 03:40:39;;;;;;;10.18;2.35;;;10.20;99.90;;;;;;5000147;28;20044;-67
2021/03/29 03:43:07;;;;;;;6.93;2.15;;;10.20;99.90;;;;;;5012313;28;20099;-66
2021/03/29 03:45:41;;;;;;;7.80;2.20;;;10.10;99.90;;;;;;5013817;28;20040;-66
2021/03/29 03:48:07;;;;;;;9.40;2.53;;;10.00;99.90;;;;;;5009799;28;20040;-67
2021/03/29 03:50:34;;;;;;;11.43;2.33;;;9.90;99.90;;;;;;5004202;28;20034;-66
2021/03/29 03:53:02;;;;;;;13.50;2.38;;;9.80;99.90;;;;;;5009298;28;20029;-66
2021/03/29 03:55:28;;;;;;;10.98;2.33;;;9.90;99.90;;;;;;5004574;28;20106;-67
2021/03/29 03:57:54;;;;;;;11.48;2.90;;;9.80;99.90;;;;;;5003731;28;20114;-67
2021/03/29 04:00:21;;;;;;;10.93;2.60;;;9.80;99.90;;;;;;5006432;28;20029;-67
2021/03/29 04:02:49;;;;;;;6.20;2.55;;;9.80;99.90;;;;;;5009377;28;20602;-66
2021/03/29 04:05:16;;;;;;;9.25;2.08;;;9.90;99.90;;;;;;5013190;28;20041;-66
2021/03/29 04:07:43;;;;;;;10.18;2.40;;;9.80;99.90;;;;;;5003243;28;20630;-67
2021/03/29 04:10:19;;;;;;;9.63;2.63;;;9.90;99.90;;;;;;5006533;28;20041;-67
2021/03/29 04:12:50;;;;;;;9.25;2.13;;;9.90;99.90;;;;;;5002464;28;20076;-66
2021/03/29 04:15:15;;;;;;;8.60;2.03;;;9.90;99.90;;;;;;5015203;28;20072;-66
2021/03/29 04:17:41;;;;;;;11.68;2.50;;;10.00;99.90;;;;;;4999430;28;20738;-66
2021/03/29 04:20:08;;;;;;;7.72;2.15;;;10.00;99.90;;;;;;5008755;28;20127;-66
2021/03/29 04:22:35;;;;;;;9.73;2.50;;;9.90;99.90;;;;;;5009905;28;20030;-67
2021/03/29 04:25:00;;;;;;;9.50;2.30;;;10.00;99.90;;;;;;5009799;28;20032;-67
2021/03/29 04:27:26;;;;;;;6.45;2.45;;;10.10;99.90;;;;;;5013960;28;20117;-67
2021/03/29 04:29:52;;;;;;;5.10;1.98;;;10.00;99.90;;;;;;5012799;28;20556;-66
2021/03/29 04:32:17;;;;;;;9.80;2.50;;;9.90;99.90;;;;;;5019373;28;20146;-66
2021/03/29 04:34:43;;;;;;;10.90;2.33;;;9.90;99.90;;;;;;5006862;28;20042;-66
2021/03/29 04:37:09;;;;;;;8.88;2.35;;;10.00;99.90;;;;;;5012466;28;20040;-66
2021/03/29 04:39:34;;;;;;;13.07;2.30;;;10.00;99.90;;;;;;5011215;28;20026;-66
2021/03/29 04:42:00;;;;;;;11.95;2.60;;;10.00;99.90;;;;;;5004315;28;20379;-66
2021/03/29 04:44:26;;;;;;;13.05;2.70;;;10.00;99.90;;;;;;5014383;28;20026;-67
2021/03/29 04:46:51;;;;;;;8.25;2.80;;;10.00;99.90;;;;;;5000852;28;20048;-66
2021/03/29 04:49:17;;;;;;;20.02;3.58;;;10.00;99.90;;;;;;5006669;28;20033;-66
2021/03/29 04:51:43;;;;;;;7.80;2.10;;;9.90;99.90;;;;;;5007057;28;20034;-67
2021/03/29 04:54:08;;;;;;;7.45;2.28;;;10.00;99.90;;;;;;5026258;28;20041;-67
2021/03/29 04:56:34;;;;;;;10.38;2.97;;;9.90;99.90;;;;;;5010550;28;20025;-66
2021/03/29 04:59:00;;;;;;;8.68;2.30;;;9.90;99.90;;;;;;5013291;28;20030;-67
2021/03/29 05:01:25;;;;;;;8.07;2.40;;;10.10;99.90;;;;;;5006431;28;20025;-66
2021/03/29 05:03:51;;;;;;;11.80;3.33;;;10.10;99.90;;;;;;5026407;28;20061;-66
2021/03/29 05:06:17;;;;;;;10.43;2.22;;;10.10;99.90;;;;;;4999617;28;20116;-66
2021/03/29 05:08:43;;;;;;;10.90;2.45;;;10.10;99.90;;;;;;5019081;28;20153;-66
2021/03/29 05:11:10;;;;;;;12.68;2.28;;;10.20;99.90;;;;;;5018971;28;20698;-65
2021/03/29 05:13:36;;;;;;;6.43;2.13;;;10.20;99.90;;;;;;5007607;28;20034;-65
2021/03/29 05:16:02;;;;;;;12.60;3.10;;;10.20;99.90;;;;;;5016770;28;20497;-63
2021/03/29 05:18:27;;;;;;;12.77;4.20;;;10.20;99.90;;;;;;5030197;28;20037;-63
2021/03/29 05:20:54;;;;;;;32.75;11.10;;;10.20;99.90;;;;;;5010758;28;20044;-63
2021/03/29 05:23:21;;;;;;;13.10;2.72;;;10.30;99.90;;;;;;5007352;28;20033;-67
2021/03/29 05:25:47;;;;;;;10.07;3.10;;;10.30;99.90;;;;;;4995110;28;20125;-67
2021/03/29 05:28:13;;;;;;;7.38;2.15;;;10.40;99.90;;;;;;4999354;28;20121;-67
2021/03/29 05:30:39;;;;;;;11.43;2.53;;;10.50;99.90;;;;;;5016598;28;20034;-67
2021/03/29 05:33:05;;;;;;;5.88;2.20;;;10.40;99.90;;;;;;5002690;28;20405;-67
2021/03/29 05:35:31;;;;;;;10.07;2.60;;;10.40;99.90;;;;;;5008638;28;20068;-65
2021/03/29 05:37:57;;;;;;;13.02;2.90;;;10.50;99.90;;;;;;5017726;28;20033;-64
2021/03/29 05:40:22;;;;;;;9.65;2.50;;;10.50;99.90;;;;;;5018857;28;20041;-64
2021/03/29 05:42:50;;;;;;;8.40;2.33;;;10.60;99.90;;;;;;4998636;28;20112;-65
2021/03/29 05:45:17;;;;;;;14.77;5.28;;;10.50;99.90;;;;;;5008776;28;20329;-66
2021/03/29 05:47:43;;;;;;;11.18;2.55;;;10.50;99.90;;;;;;4999824;28;20030;-64
2021/03/29 05:50:16;;;;;;;9.52;2.50;;;10.50;99.90;;;;;;5008197;28;20872;-64
2021/03/29 05:52:43;;;;;;;8.52;2.30;;;10.60;99.90;;;;;;5008792;28;20033;-64
2021/03/29 05:55:17;;;;;;;7.88;2.45;;;10.70;99.90;;;;;;4994684;28;20505;-64
2021/03/29 06:00:37;;;;;;;13.10;3.78;;;10.80;99.90;;;;;;4999228;28;20042;-65
2021/03/29 06:03:18;;;;;;;18.00;2.67;;;10.80;99.90;;;;;;5019123;28;20497;-65
2021/03/29 06:05:45;;;;;;;13.65;2.53;;;10.80;99.90;;;;;;5014294;28;20899;-65
2021/03/29 06:08:11;;;;;;;12.00;3.47;;;10.90;99.90;;;;;;5007242;28;20125;-65
2021/03/29 06:10:36;;;;;;;11.63;2.83;;;11.00;99.90;;;;;;5021638;28;20947;-64
2021/03/29 06:13:20;;;;;;;12.93;2.33;;;11.00;99.90;;;;;;5006147;28;20033;-64
2021/03/29 06:15:47;;;;;;;13.80;3.10;;;11.00;99.90;;;;;;5018691;28;20834;-64
2021/03/29 06:18:17;;;;;;;8.50;2.70;;;11.10;99.90;;;;;;5009103;28;20104;-64
2021/03/29 06:21:03;;;;;;;15.77;3.05;;;11.10;99.90;;;;;;5027508;28;20030;-64
2021/03/29 06:23:30;;;;;;;14.18;2.85;;;11.20;99.90;;;;;;4998696;28;20030;-65
2021/03/29 06:26:22;;;;;;;8.40;2.25;;;11.20;99.90;;;;;;5008211;28;20053;-66
2021/03/29 06:34:03;;;;;;;13.23;3.30;;;11.40;99.90;;;;;;4905526;29;20067;-70
2021/03/29 06:36:40;;;;;;;11.57;2.17;;;11.40;99.90;;;;;;4910191;29;20479;-68
2021/03/29 06:39:20;;;;;;;8.80;2.50;;;11.50;99.90;;;;;;4910888;29;20043;-67
2021/03/29 06:41:57;;;;;;;13.48;2.83;;;11.50;99.90;;;;;;4910779;29;20039;-69
2021/03/29 06:44:25;;;;;;;9.85;2.33;;;11.60;99.90;;;;;;4899061;29;20388;-68
2021/03/29 06:47:03;;;;;;;13.73;2.60;;;11.60;99.90;;;;;;4893428;29;20044;-68
2021/03/29 06:49:49;;;;;;;9.63;2.67;;;11.80;99.90;;;;;;4895808;29;20051;-69
2021/03/29 06:52:29;;;;;;;10.23;2.92;;;11.70;99.90;;;;;;4905704;29;20492;-68
2021/03/29 06:55:17;;;;;;;13.93;2.38;;;11.80;99.90;;;;;;4904910;29;20044;-69
2021/03/29 06:57:43;;;;;;;11.57;2.60;;;11.80;99.90;;;;;;4903470;29;20033;-68
2021/03/29 07:00:29;;;;;;;13.07;3.40;;;12.00;99.90;;;;;;4911651;29;20107;-68
2021/03/29 07:02:58;;;;;;;8.63;2.40;;;12.20;99.90;;;;;;4927228;29;20038;-69
2021/03/29 07:05:25;;;;;;;13.75;2.83;;;12.10;99.70;;;;;;4902780;29;20059;-69
2021/03/29 07:07:52;;;;;;;9.82;2.30;;;12.20;99.90;;;;;;4914064;29;20558;-69
2021/03/29 07:10:18;;;;;;;11.73;2.92;;;12.20;99.90;;;;;;4909339;29;20313;-69
2021/03/29 07:12:45;;;;;;;9.90;2.33;;;12.30;99.90;;;;;;4905381;29;20395;-69
2021/03/29 07:15:13;;;;;;;12.10;2.42;;;12.30;99.40;;;;;;4909699;29;20032;-70
2021/03/29 07:17:42;;;;;;;14.77;2.80;;;12.40;99.50;;;;;;4906101;29;20036;-70
2021/03/29 07:20:25;;;;;;;10.20;3.60;;;12.40;99.60;;;;;;4909516;29;20576;-68
2021/03/29 07:22:54;;;;;;;11.30;2.58;;;12.40;99.60;;;;;;4902153;29;20036;-68
2021/03/29 07:25:29;;;;;;;59.58;25.45;;;12.60;99.10;;;;;;4920548;29;20135;-67
2021/03/29 07:27:56;;;;;;;17.13;2.90;;;12.60;99.40;;;;;;4901846;29;20390;-68
2021/03/29 07:30:44;;;;;;;11.90;2.55;;;12.60;98.90;;;;;;4908503;29;20904;-69
2021/03/29 07:33:11;;;;;;;10.02;2.58;;;12.70;99.00;;;;;;4908328;29;20178;-69
2021/03/29 07:35:51;;;;;;;9.93;2.45;;;12.70;98.90;;;;;;4907911;29;20054;-69
2021/03/29 07:38:19;;;;;;;9.57;2.33;;;12.80;98.70;;;;;;4909779;29;20028;-69
2021/03/29 07:40:48;;;;;;;13.45;2.60;;;12.90;98.60;;;;;;4906483;29;20039;-69
2021/03/29 07:43:17;;;;;;;13.20;2.50;;;12.90;99.10;;;;;;4913742;29;20211;-69
2021/03/29 07:46:05;;;;;;;12.32;2.78;;;13.00;98.90;;;;;;4906780;29;20131;-69
2021/03/29 07:48:38;;;;;;;11.65;2.40;;;12.90;98.40;;;;;;4905592;29;20449;-69
2021/03/29 07:51:10;;;;;;;10.45;2.30;;;12.90;98.70;;;;;;4903552;29;20127;-69
2021/03/29 07:53:43;;;;;;;14.20;2.50;;;12.90;98.80;;;;;;4907242;29;20039;-69
2021/03/29 07:56:11;;;;;;;7.15;2.53;;;13.10;98.60;;;;;;4910248;29;20119;-69
2021/03/29 07:58:46;;;;;;;11.90;2.30;;;13.10;98.50;;;;;;4905287;29;20776;-69
2021/03/29 08:01:13;;;;;;;8.98;2.83;;;13.30;98.30;;;;;;4906694;29;20115;-70
2021/03/29 08:03:44;;;;;;;8.82;2.33;;;13.30;98.30;;;;;;4905811;29;20762;-69
2021/03/29 08:06:35;;;;;;;10.48;2.65;;;13.40;98.30;;;;;;4895020;29;20127;-70
2021/03/29 08:09:01;;;;;;;12.45;3.13;;;13.50;97.80;;;;;;4902086;29;20546;-71
2021/03/29 08:11:49;;;;;;;8.10;2.47;;;13.60;97.80;;;;;;4908498;29;20051;-69
2021/03/29 08:14:31;;;;;;;9.90;2.63;;;13.60;97.60;;;;;;4908104;29;20031;-68
2021/03/29 08:16:57;;;;;;;11.82;3.22;;;13.60;97.20;;;;;;4902200;29;20036;-68
2021/03/29 08:19:25;;;;;;;11.88;3.42;;;13.40;98.20;;;;;;4914160;29;20629;-68
2021/03/29 08:22:02;;;;;;;12.18;2.70;;;13.60;98.10;;;;;;4905997;29;20037;-68
2021/03/29 08:24:40;;;;;;;11.52;2.92;;;13.70;97.50;;;;;;4895215;29;20055;-68
2021/03/29 08:27:14;;;;;;;14.48;2.35;;;13.80;97.50;;;;;;4903268;29;20044;-68
2021/03/29 08:29:44;;;;;;;11.05;3.05;;;13.90;98.00;;;;;;4904355;29;20842;-68
2021/03/29 08:32:16;;;;;;;12.10;2.60;;;13.90;98.30;;;;;;4905628;29;20526;-68
2021/03/29 08:34:46;;;;;;;19.23;3.20;;;13.90;98.10;;;;;;4902695;29;20146;-69
2021/03/29 08:37:14;;;;;;;10.05;2.78;;;14.10;98.30;;;;;;4906650;29;20091;-68
2021/03/29 08:39:42;;;;;;;12.63;3.05;;;14.00;97.60;;;;;;4909969;29;20048;-68
2021/03/29 08:42:08;;;;;;;13.55;2.55;;;14.10;97.70;;;;;;4898067;29;20156;-68
2021/03/29 08:44:45;;;;;;;5.97;2.10;;;14.10;97.20;;;;;;4911547;29;20036;-68
2021/03/29 08:47:12;;;;;;;12.13;2.30;;;14.20;96.80;;;;;;4911050;29;20044;-68
2021/03/29 08:49:39;;;;;;;12.35;2.35;;;14.30;97.20;;;;;;4909815;29;20048;-68
2021/03/29 08:52:05;;;;;;;10.82;2.45;;;14.50;96.60;;;;;;4911449;29;20044;-68
2021/03/29 08:54:31;;;;;;;12.93;2.25;;;14.80;95.60;;;;;;4901534;29;20058;-68
2021/03/29 08:57:06;;;;;;;11.63;2.25;;;14.90;94.80;;;;;;4905880;29;20508;-68
2021/03/29 08:59:32;;;;;;;163.00;76.47;;;15.20;94.40;;;;;;4905016;29;20466;-68
2021/03/29 09:01:59;;;;;;;13.32;2.35;;;15.50;93.10;;;;;;4908804;29;21076;-68
2021/03/29 09:04:25;;;;;;;11.32;2.50;;;15.30;93.00;;;;;;4908911;29;20547;-68
2021/03/29 09:06:53;;;;;;;7.35;1.90;;;15.30;92.80;;;;;;4905681;29;20051;-68
2021/03/29 09:09:21;;;;;;;10.75;2.50;;;15.40;92.70;;;;;;4906554;29;20055;-68
2021/03/29 09:11:49;;;;;;;10.38;1.98;;;15.30;91.90;;;;;;4899965;29;20032;-68
2021/03/29 09:14:16;;;;;;;9.55;1.92;;;15.20;91.60;;;;;;4904710;29;20043;-68
2021/03/29 09:16:44;;;;;;;8.32;1.95;;;15.40;91.20;;;;;;4911481;29;20404;-68
2021/03/29 09:19:15;;;;;;;8.73;2.22;;;15.40;90.70;;;;;;4910161;29;20043;-68
2021/03/29 09:21:42;;;;;;;14.52;3.97;;;15.50;91.60;;;;;;4909413;29;20487;-67
2021/03/29 09:24:16;;;;;;;11.60;2.15;;;15.60;91.30;;;;;;4907327;29;20094;-68
2021/03/29 09:26:42;;;;;;;14.38;2.65;;;15.80;90.70;;;;;;4907008;29;20089;-67
2021/03/29 09:29:21;;;;;;;11.02;2.20;;;15.70;89.10;;;;;;4910392;29;20047;-67
2021/03/29 09:31:47;;;;;;;10.73;2.13;;;15.70;88.50;;;;;;4923602;29;20044;-68
2021/03/29 09:34:13;;;;;;;11.95;2.47;;;15.60;88.00;;;;;;4907233;29;20104;-68
2021/03/29 09:36:39;;;;;;;11.50;2.28;;;15.60;88.00;;;;;;4925968;29;20149;-68
2021/03/29 09:39:14;;;;;;;8.80;1.90;;;15.40;88.50;;;;;;4906397;29;20115;-67
2021/03/29 09:41:49;;;;;;;11.45;2.42;;;15.50;89.80;;;;;;4907020;29;20072;-68
2021/03/29 09:44:15;;;;;;;9.07;2.15;;;15.60;89.10;;;;;;4911179;29;20035;-68
2021/03/29 09:46:41;;;;;;;15.00;1.98;;;15.50;89.90;;;;;;4900624;29;20162;-68
2021/03/29 09:49:15;;;;;;;7.63;2.22;;;15.60;89.40;;;;;;4901781;29;20389;-68
2021/03/29 09:52:05;;;;;;;13.63;2.33;;;15.90;86.70;;;;;;4911038;29;20043;-70
2021/03/29 09:54:34;;;;;;;10.13;2.15;;;15.90;85.10;;;;;;4912567;29;20044;-71
2021/03/29 09:57:15;;;;;;;12.18;3.05;;;15.80;86.40;;;;;;4907159;29;20031;-70
2021/03/29 09:59:43;;;;;;;13.38;2.20;;;16.00;84.50;;;;;;4891722;29;20059;-67
2021/03/29 10:02:12;;;;;;;9.07;1.90;;;15.90;86.40;;;;;;4908363;29;20036;-70
2021/03/29 10:04:39;;;;;;;16.10;2.65;;;16.10;86.10;;;;;;4909422;29;20074;-69
2021/03/29 10:07:12;;;;;;;10.45;2.05;;;16.40;86.70;;;;;;4905179;29;20045;-69
2021/03/29 10:09:38;;;;;;;10.23;2.15;;;16.60;84.40;;;;;;4901623;29;20571;-69
2021/03/29 10:12:05;;;;;;;7.32;2.03;;;16.60;82.10;;;;;;4912302;29;20075;-70
2021/03/29 10:14:36;;;;;;;5.60;1.83;;;16.70;84.10;;;;;;4897806;29;20411;-69
2021/03/29 10:17:12;;;;;;;8.48;2.10;;;16.80;81.50;;;;;;4904969;29;20051;-68
2021/03/29 10:19:38;;;;;;;13.05;1.92;;;16.30;80.20;;;;;;4902730;29;20031;-68
2021/03/29 10:22:18;;;;;;;9.30;2.28;;;16.00;82.00;;;;;;4904077;29;20674;-68
2021/03/29 10:24:59;;;;;;;22.15;2.45;;;16.10;81.60;;;;;;4905622;29;20032;-68
2021/03/29 10:27:40;;;;;;;10.35;2.05;;;16.00;81.30;;;;;;4907094;29;20047;-68
2021/03/29 10:30:08;;;;;;;8.57;1.85;;;16.00;81.90;;;;;;4908146;29;20040;-68
2021/03/29 10:32:34;;;;;;;8.52;2.20;;;16.00;82.40;;;;;;4907867;29;20055;-68
2021/03/29 10:35:00;;;;;;;7.72;1.83;;;16.00;81.70;;;;;;4906369;29;20795;-68
2021/03/29 10:37:31;;;;;;;12.63;2.15;;;16.10;81.10;;;;;;4910473;29;20039;-68
2021/03/29 10:39:59;;;;;;;5.82;1.55;;;16.00;81.40;;;;;;4894295;29;20924;-68
2021/03/29 10:42:28;;;;;;;8.13;1.60;;;15.80;81.00;;;;;;4908210;29;20031;-68
2021/03/29 10:44:54;;;;;;;9.05;1.88;;;15.60;80.80;;;;;;4907295;29;20036;-68
2021/03/29 10:47:22;;;;;;;4.47;1.50;;;15.70;81.30;;;;;;4912027;29;20050;-68
2021/03/29 10:49:48;;;;;;;11.75;2.63;;;15.70;82.00;;;;;;4908891;29;20043;-68
2021/03/29 10:52:14;;;;;;;12.10;2.35;;;15.70;80.80;;;;;;4912402;29;20106;-66
2021/03/29 10:54:40;;;;;;;7.68;1.60;;;15.70;80.00;;;;;;4923995;29;20059;-67
2021/03/29 10:57:06;;;;;;;8.20;1.58;;;15.80;81.20;;;;;;4907572;29;20040;-67
2021/03/29 10:59:32;;;;;;;10.45;1.92;;;16.00;80.90;;;;;;4904443;29;20599;-67
2021/03/29 11:01:59;;;;;;;10.25;2.22;;;16.20;78.20;;;;;;4905605;29;20032;-67
2021/03/29 11:04:26;;;;;;;10.93;2.10;;;16.20;77.00;;;;;;4906749;29;20036;-67
2021/03/29 11:06:52;;;;;;;8.77;1.88;;;16.30;77.90;;;;;;4908243;29;20786;-67
2021/03/29 11:09:17;;;;;;;10.65;2.10;;;16.30;77.50;;;;;;4905839;29;20043;-69
2021/03/29 11:11:43;;;;;;;11.88;2.17;;;16.30;77.70;;;;;;4905661;29;20036;-67
2021/03/29 11:14:09;;;;;;;12.05;2.00;;;16.40;76.70;;;;;;4912242;29;20820;-67
2021/03/29 11:16:35;;;;;;;11.73;2.03;;;16.40;78.00;;;;;;4907766;29;20032;-68
2021/03/29 11:19:01;;;;;;;11.35;2.45;;;16.60;77.70;;;;;;4911613;29;20031;-68
2021/03/29 11:21:27;;;;;;;9.57;2.30;;;16.70;76.20;;;;;;4902948;29;20036;-67
2021/03/29 11:23:53;;;;;;;16.55;3.20;;;16.80;74.40;;;;;;4909944;29;20032;-69
2021/03/29 11:26:18;;;;;;;10.10;3.15;;;17.20;75.70;;;;;;4903423;29;20560;-69
2021/03/29 11:28:44;;;;;;;12.32;2.20;;;17.40;71.80;;;;;;4905687;29;20079;-68
2021/03/29 11:31:10;;;;;;;15.20;2.20;;;17.30;70.80;;;;;;4903492;29;20113;-68
2021/03/29 11:33:36;;;;;;;11.60;1.90;;;17.30;70.40;;;;;;4903982;29;20123;-69
2021/03/29 11:36:02;;;;;;;11.00;1.92;;;17.50;69.20;;;;;;4903073;29;20055;-68
2021/03/29 11:38:28;;;;;;;8.10;1.80;;;17.70;68.80;;;;;;4905969;29;20532;-68
2021/03/29 11:40:54;;;;;;;8.20;2.17;;;18.00;69.30;;;;;;4907320;29;20110;-69
2021/03/29 11:43:20;;;;;;;9.38;2.38;;;18.10;69.00;;;;;;4920095;29;20151;-69
2021/03/29 11:45:46;;;;;;;12.25;2.28;;;18.50;69.40;;;;;;4903395;29;20036;-69
2021/03/29 11:48:12;;;;;;;7.85;2.30;;;18.60;67.10;;;;;;4903616;29;20552;-67
2021/03/29 11:50:37;;;;;;;10.35;2.30;;;18.40;65.90;;;;;;4906622;29;20426;-69
2021/03/29 11:53:03;;;;;;;11.63;2.30;;;18.40;67.10;;;;;;4905415;29;20040;-69
2021/03/29 11:55:29;;;;;;;9.30;2.20;;;18.70;67.10;;;;;;4902533;29;20051;-67
2021/03/29 11:57:55;;;;;;;9.00;2.20;;;19.20;65.50;;;;;;4912535;29;20040;-67
2021/03/29 12:02:58;;;;;;;13.35;2.10;;;20.10;61.40;;;;;;4905860;29;20028;-72
2021/03/29 12:05:29;;;;;;;9.88;2.47;;;19.90;62.00;;;;;;4896647;29;20064;-68
2021/03/29 12:13:25;;;;;;;12.60;2.70;;;21.20;57.20;;;;;;4907139;29;20032;-67
2021/03/29 12:15:54;;;;;;;8.95;2.50;;;21.20;57.50;;;;;;4906072;29;20650;-69
2021/03/29 12:18:32;;;;;;;9.93;2.10;;;21.10;57.00;;;;;;4923848;29;20036;-68
2021/03/29 12:20:59;;;;;;;9.73;2.90;;;21.10;57.70;;;;;;4908765;29;20119;-68
2021/03/29 12:23:26;;;;;;;14.68;4.63;;;21.00;56.80;;;;;;4907994;29;20095;-68
2021/03/29 12:25:54;;;;;;;7.25;2.40;;;21.10;57.30;;;;;;4908768;29;20031;-69
2021/03/29 12:28:21;;;;;;;12.35;2.80;;;21.60;56.30;;;;;;4907201;29;20064;-68
2021/03/29 12:30:47;;;;;;;10.73;2.70;;;21.40;55.70;;;;;;4907185;29;20036;-69
2021/03/29 12:33:14;;;;;;;13.85;3.20;;;21.50;58.10;;;;;;4900223;29;20111;-69
2021/03/29 12:35:40;;;;;;;11.90;3.40;;;22.20;55.80;;;;;;4907189;29;20522;-69
2021/03/29 12:38:07;;;;;;;14.55;2.50;;;21.90;55.30;;;;;;4913874;29;20556;-68
2021/03/29 12:40:34;;;;;;;14.68;2.85;;;22.40;55.10;;;;;;4902714;29;20040;-69
2021/03/29 12:45:28;;;;;;;9.60;2.72;;;22.20;55.10;;;;;;4906755;29;20122;-68
2021/03/29 12:48:02;;;;;;;10.45;3.15;;;22.40;55.10;;;;;;4905694;29;20039;-69
2021/03/29 12:50:29;;;;;;;11.25;2.88;;;22.70;53.50;;;;;;4904384;29;20069;-69
2021/03/29 12:52:55;;;;;;;15.10;3.50;;;22.50;53.60;;;;;;4903676;29;20039;-69
2021/03/29 12:55:24;;;;;;;11.10;2.70;;;22.30;53.50;;;;;;4903107;29;20040;-70
2021/03/29 12:57:52;;;;;;;11.73;2.42;;;21.90;54.60;;;;;;4906333;29;20028;-69
2021/03/29 13:00:20;;;;;;;8.55;3.17;;;22.40;54.90;;;;;;4903190;29;20040;-70
2021/03/29 13:02:46;;;;;;;18.67;6.10;;;22.50;54.60;;;;;;4905169;29;20039;-71
2021/03/29 13:05:26;;;;;;;10.23;2.95;;;22.60;54.30;;;;;;4910827;29;20047;-69
2021/03/29 13:08:15;;;;;;;15.23;2.75;;;22.70;53.40;;;;;;4904155;29;20044;-70